PWSweather.com
Personal Weather Stations
Station Observations
KVAGLENALL
West Henrico, Glen Allen, VA 23060-6503

West HenricoGlen Allen, VA 23060-6503

Lat: 37.6554, Lon: -77.5693

Elevation: 273

Station Type: Davis Vantage Pro II

www.glenallenweather.com

High Low Average
Temperature 26.3°F-3.2°C 6.2°F-14.3°C 15.9°F-8.9°C
Dew Point 9.0°F-12.8°C 1.0°F-17.2°C 4.3°F-15.4°C
Winds 11.1 mph 17.9 kmh 0.1 mph 0.2 kmh 2.0 mph SSW3.2 kmh SSW
Wind Gusts 14.2 mph22.9 kmh 0.1 mph0.2 kmh 4.0 mph6.4 kmh
Humidity 87% 38% 62%
Pressure 30.57 in1035.2 mb 30.45 in1031.2 mb -
Precipitation 0.00 in0.0 mm - -
Hour Temp Dew Point Humidity Winds Wind Gusts Pressure Precip Precip Rate Daily Precip Total
12:00 AM 15.4°F-9.2°C 7.0°F-13.9°C 69% 3.0 mph NNE4.8 kmh NNE 5.1 mph8.2 kmh 30.45 in1031.2 mb 0.00 in0.0 mm 0.00 in0.0 mm 0.00 in0.0 mm
12:15 AM 15.3°F-9.3°C 7.0°F-13.9°C 69% 1.0 mph N1.6 kmh N 9.1 mph14.6 kmh 30.45 in1031.2 mb 0.00 in0.0 mm 0.00 in0.0 mm 0.00 in0.0 mm
12:30 AM 15.6°F-9.1°C 6.6°F-14.1°C 67% 3.0 mph N4.8 kmh N 4.1 mph6.6 kmh 30.46 in1031.5 mb 0.00 in0.0 mm 0.00 in0.0 mm 0.00 in0.0 mm
12:45 AM 15.6°F-9.1°C 6.6°F-14.1°C 67% 4.1 mph NNE6.6 kmh NNE 9.1 mph14.6 kmh 30.46 in1031.5 mb 0.00 in0.0 mm 0.00 in0.0 mm 0.00 in0.0 mm
01:00 AM 15.4°F-9.2°C 6.4°F-14.2°C 67% 3.0 mph NNE4.8 kmh NNE 3.1 mph5.0 kmh 30.45 in1031.2 mb 0.00 in0.0 mm 0.00 in0.0 mm 0.00 in0.0 mm
01:15 AM 15.0°F-9.4°C 6.3°F-14.3°C 68% 8.1 mph NNE13.0 kmh NNE 8.1 mph13.0 kmh 30.46 in1031.5 mb 0.00 in0.0 mm 0.00 in0.0 mm 0.00 in0.0 mm
01:30 AM 14.8°F-9.6°C 6.1°F-14.4°C 68% 4.1 mph N6.6 kmh N 6.1 mph9.8 kmh 30.46 in1031.5 mb 0.00 in0.0 mm 0.00 in0.0 mm 0.00 in0.0 mm
01:45 AM 14.5°F-9.7°C 6.2°F-14.3°C 69% 2.0 mph N3.2 kmh N 4.1 mph6.6 kmh 30.46 in1031.5 mb 0.00 in0.0 mm 0.00 in0.0 mm 0.00 in0.0 mm
02:00 AM 13.8°F-10.1°C 5.8°F-14.6°C 70% 2.0 mph NNW3.2 kmh NNW 5.1 mph8.2 kmh 30.47 in1031.8 mb 0.00 in0.0 mm 0.00 in0.0 mm 0.00 in0.0 mm
02:15 AM 13.1°F-10.5°C 5.8°F-14.6°C 72% 2.0 mph NNW3.2 kmh NNW 2.1 mph3.4 kmh 30.47 in1031.8 mb 0.00 in0.0 mm 0.00 in0.0 mm 0.00 in0.0 mm
02:30 AM 12.5°F-10.8°C 5.5°F-14.7°C 73% 2.0 mph N3.2 kmh N 2.1 mph3.4 kmh 30.47 in1031.8 mb 0.00 in0.0 mm 0.00 in0.0 mm 0.00 in0.0 mm
02:45 AM 11.8°F-11.2°C 5.1°F-14.9°C 74% 1.0 mph NNE1.6 kmh NNE 2.1 mph3.4 kmh 30.46 in1031.5 mb 0.00 in0.0 mm 0.00 in0.0 mm 0.00 in0.0 mm
03:00 AM 11.3°F-11.5°C 4.9°F-15.1°C 75% 5.1 mph NNE8.2 kmh NNE 5.1 mph8.2 kmh 30.47 in1031.8 mb 0.00 in0.0 mm 0.00 in0.0 mm 0.00 in0.0 mm
03:15 AM 11.2°F-11.6°C 5.1°F-14.9°C 76% 0.1 mph N0.2 kmh N 2.1 mph3.4 kmh 30.48 in1032.2 mb 0.00 in0.0 mm 0.00 in0.0 mm 0.00 in0.0 mm
03:30 AM 10.6°F-11.9°C 4.8°F-15.1°C 77% 0.1 mph N0.2 kmh N 1.1 mph1.8 kmh 30.48 in1032.2 mb 0.00 in0.0 mm 0.00 in0.0 mm 0.00 in0.0 mm
03:45 AM 10.2°F-12.1°C 4.4°F-15.3°C 77% 0.1 mph N0.2 kmh N 0.1 mph0.2 kmh 30.48 in1032.2 mb 0.00 in0.0 mm 0.00 in0.0 mm 0.00 in0.0 mm
04:00 AM 9.7°F-12.4°C 4.2°F-15.4°C 78% 0.1 mph N0.2 kmh N 0.1 mph0.2 kmh 30.47 in1031.8 mb 0.00 in0.0 mm 0.00 in0.0 mm 0.00 in0.0 mm
04:15 AM 9.4°F-12.6°C 4.2°F-15.4°C 79% 0.1 mph N0.2 kmh N 0.1 mph0.2 kmh 30.48 in1032.2 mb 0.00 in0.0 mm 0.00 in0.0 mm 0.00 in0.0 mm
04:30 AM 9.1°F-12.7°C 4.1°F-15.5°C 80% 0.1 mph N0.2 kmh N 1.1 mph1.8 kmh 30.48 in1032.2 mb 0.00 in0.0 mm 0.00 in0.0 mm 0.00 in0.0 mm
04:45 AM 8.8°F-12.9°C 4.2°F-15.4°C 81% 0.1 mph N0.2 kmh N 0.1 mph0.2 kmh 30.48 in1032.2 mb 0.00 in0.0 mm 0.00 in0.0 mm 0.00 in0.0 mm
05:00 AM 8.6°F-13.0°C 4.0°F-15.6°C 81% 0.1 mph N0.2 kmh N 0.1 mph0.2 kmh 30.48 in1032.2 mb 0.00 in0.0 mm 0.00 in0.0 mm 0.00 in0.0 mm
05:15 AM 8.5°F-13.1°C 4.5°F-15.3°C 83% 0.1 mph N0.2 kmh N 1.1 mph1.8 kmh 30.48 in1032.2 mb 0.00 in0.0 mm 0.00 in0.0 mm 0.00 in0.0 mm
05:30 AM 8.5°F-13.1°C 4.7°F-15.2°C 84% 1.0 mph N1.6 kmh N 1.1 mph1.8 kmh 30.48 in1032.2 mb 0.00 in0.0 mm 0.00 in0.0 mm 0.00 in0.0 mm
05:45 AM 8.6°F-13.0°C 4.8°F-15.1°C 84% 0.1 mph N0.2 kmh N 1.1 mph1.8 kmh 30.49 in1032.5 mb 0.00 in0.0 mm 0.00 in0.0 mm 0.00 in0.0 mm
06:00 AM 8.2°F-13.2°C 4.4°F-15.3°C 84% 0.1 mph N0.2 kmh N 1.1 mph1.8 kmh 30.49 in1032.5 mb 0.00 in0.0 mm 0.00 in0.0 mm 0.00 in0.0 mm
06:15 AM 7.8°F-13.4°C 4.3°F-15.4°C 85% 0.1 mph N0.2 kmh N 1.1 mph1.8 kmh 30.50 in1032.8 mb 0.00 in0.0 mm 0.00 in0.0 mm 0.00 in0.0 mm
06:30 AM 7.4°F-13.7°C 3.9°F-15.6°C 85% 0.1 mph N0.2 kmh N 0.1 mph0.2 kmh 30.50 in1032.8 mb 0.00 in0.0 mm 0.00 in0.0 mm 0.00 in0.0 mm
06:45 AM 7.4°F-13.7°C 3.9°F-15.6°C 85% 0.1 mph N0.2 kmh N 0.1 mph0.2 kmh 30.49 in1032.5 mb 0.00 in0.0 mm 0.00 in0.0 mm 0.00 in0.0 mm
07:00 AM 7.3°F-13.7°C 3.8°F-15.7°C 85% 0.1 mph N0.2 kmh N 0.1 mph0.2 kmh 30.50 in1032.8 mb 0.00 in0.0 mm 0.00 in0.0 mm 0.00 in0.0 mm
07:15 AM 7.4°F-13.7°C 3.9°F-15.6°C 85% 0.1 mph N0.2 kmh N 0.1 mph0.2 kmh 30.50 in1032.8 mb 0.00 in0.0 mm 0.00 in0.0 mm 0.00 in0.0 mm
07:30 AM 7.1°F-13.8°C 3.6°F-15.8°C 85% 0.1 mph N0.2 kmh N 0.1 mph0.2 kmh 30.50 in1032.8 mb 0.00 in0.0 mm 0.00 in0.0 mm 0.00 in0.0 mm
07:45 AM 6.8°F-14.0°C 3.3°F-15.9°C 85% 0.1 mph N0.2 kmh N 0.1 mph0.2 kmh 30.51 in1033.2 mb 0.00 in0.0 mm 0.00 in0.0 mm 0.00 in0.0 mm
08:00 AM 6.6°F-14.1°C 3.3°F-15.9°C 86% 0.1 mph N0.2 kmh N 1.1 mph1.8 kmh 30.51 in1033.2 mb 0.00 in0.0 mm 0.00 in0.0 mm 0.00 in0.0 mm
08:15 AM 6.4°F-14.2°C 3.2°F-16.0°C 86% 0.1 mph N0.2 kmh N 1.1 mph1.8 kmh 30.51 in1033.2 mb 0.00 in0.0 mm 0.00 in0.0 mm 0.00 in0.0 mm
08:30 AM 6.2°F-14.3°C 3.0°F-16.1°C 86% 0.1 mph N0.2 kmh N 0.1 mph0.2 kmh 30.51 in1033.2 mb 0.00 in0.0 mm 0.00 in0.0 mm 0.00 in0.0 mm
08:45 AM 6.5°F-14.2°C 3.5°F-15.8°C 87% 0.1 mph N0.2 kmh N 1.1 mph1.8 kmh 30.52 in1033.5 mb 0.00 in0.0 mm 0.00 in0.0 mm 0.00 in0.0 mm
09:00 AM 8.2°F-13.2°C 5.2°F-14.9°C 87% 0.1 mph N0.2 kmh N 2.1 mph3.4 kmh 30.53 in1033.9 mb 0.00 in0.0 mm 0.00 in0.0 mm 0.00 in0.0 mm
09:15 AM 10.4°F-12.0°C 6.5°F-14.2°C 84% 2.0 mph NW3.2 kmh NW 2.1 mph3.4 kmh 30.53 in1033.9 mb 0.00 in0.0 mm 0.00 in0.0 mm 0.00 in0.0 mm
09:30 AM 13.3°F-10.4°C 7.7°F-13.5°C 78% 2.0 mph NW3.2 kmh NW 3.1 mph5.0 kmh 30.54 in1034.2 mb 0.00 in0.0 mm 0.00 in0.0 mm 0.00 in0.0 mm
09:45 AM 15.6°F-9.1°C 8.5°F-13.1°C 73% 3.0 mph N4.8 kmh N 4.1 mph6.6 kmh 30.54 in1034.2 mb 0.00 in0.0 mm 0.00 in0.0 mm 0.00 in0.0 mm
10:00 AM 16.9°F-8.4°C 8.2°F-13.2°C 68% 4.1 mph NW6.6 kmh NW 10.1 mph16.3 kmh 30.54 in1034.2 mb 0.00 in0.0 mm 0.00 in0.0 mm 0.00 in0.0 mm
10:15 AM 18.7°F-7.4°C 8.9°F-12.8°C 65% 1.0 mph N1.6 kmh N 4.1 mph6.6 kmh 30.55 in1034.5 mb 0.00 in0.0 mm 0.00 in0.0 mm 0.00 in0.0 mm
10:30 AM 19.3°F-7.1°C 8.8°F-12.9°C 63% 4.1 mph N6.6 kmh N 12.2 mph19.6 kmh 30.56 in1034.9 mb 0.00 in0.0 mm 0.00 in0.0 mm 0.00 in0.0 mm
10:45 AM 19.9°F-6.7°C 9.0°F-12.8°C 62% 3.0 mph N4.8 kmh N 9.1 mph14.6 kmh 30.56 in1034.9 mb 0.00 in0.0 mm 0.00 in0.0 mm 0.00 in0.0 mm
11:00 AM 19.9°F-6.7°C 9.0°F-12.8°C 62% 8.1 mph N13.0 kmh N 14.2 mph22.9 kmh 30.57 in1035.2 mb 0.00 in0.0 mm 0.00 in0.0 mm 0.00 in0.0 mm
11:15 AM 22.0°F-5.6°C 7.5°F-13.6°C 53% 5.1 mph NW8.2 kmh NW 8.1 mph13.0 kmh 30.56 in1034.9 mb 0.00 in0.0 mm 0.00 in0.0 mm 0.00 in0.0 mm
11:30 AM 22.8°F-5.1°C 7.0°F-13.9°C 50% 6.1 mph N9.8 kmh N 11.2 mph18.0 kmh 30.56 in1034.9 mb 0.00 in0.0 mm 0.00 in0.0 mm 0.00 in0.0 mm
11:45 AM 23.1°F-4.9°C 6.8°F-14.0°C 49% 8.1 mph N13.0 kmh N 8.1 mph13.0 kmh 30.56 in1034.9 mb 0.00 in0.0 mm 0.00 in0.0 mm 0.00 in0.0 mm
12:00 PM 23.7°F-4.6°C 7.4°F-13.7°C 49% 7.1 mph WNW11.4 kmh WNW 7.1 mph11.4 kmh 30.56 in1034.9 mb 0.00 in0.0 mm 0.00 in0.0 mm 0.00 in0.0 mm
12:15 PM 24.5°F-4.2°C 5.7°F-14.6°C 44% 7.1 mph WNW11.4 kmh WNW 7.1 mph11.4 kmh 30.56 in1034.9 mb 0.00 in0.0 mm 0.00 in0.0 mm 0.00 in0.0 mm
12:30 PM 24.9°F-3.9°C 5.1°F-14.9°C 42% 3.0 mph NNE4.8 kmh NNE 10.1 mph16.3 kmh 30.55 in1034.5 mb 0.00 in0.0 mm 0.00 in0.0 mm 0.00 in0.0 mm
12:45 PM 25.0°F-3.9°C 4.1°F-15.5°C 40% 3.0 mph NW4.8 kmh NW 11.2 mph18.0 kmh 30.54 in1034.2 mb 0.00 in0.0 mm 0.00 in0.0 mm 0.00 in0.0 mm
01:00 PM 25.0°F-3.9°C 4.1°F-15.5°C 40% 6.1 mph NNW9.8 kmh NNW 7.1 mph11.4 kmh 30.53 in1033.9 mb 0.00 in0.0 mm 0.00 in0.0 mm 0.00 in0.0 mm
01:15 PM 25.7°F-3.5°C 4.8°F-15.1°C 40% 7.1 mph NW11.4 kmh NW 10.1 mph16.3 kmh 30.52 in1033.5 mb 0.00 in0.0 mm 0.00 in0.0 mm 0.00 in0.0 mm
01:30 PM 26.3°F-3.2°C 4.8°F-15.1°C 39% 5.1 mph WSW8.2 kmh WSW 8.1 mph13.0 kmh 30.51 in1033.2 mb 0.00 in0.0 mm 0.00 in0.0 mm 0.00 in0.0 mm
01:45 PM 25.3°F-3.7°C 3.8°F-15.7°C 39% 6.1 mph WSW9.8 kmh WSW 11.2 mph18.0 kmh 30.51 in1033.2 mb 0.00 in0.0 mm 0.00 in0.0 mm 0.00 in0.0 mm
02:00 PM 23.7°F-4.6°C 2.9°F-16.2°C 40% 8.1 mph NNE13.0 kmh NNE 9.1 mph14.6 kmh 30.50 in1032.8 mb 0.00 in0.0 mm 0.00 in0.0 mm 0.00 in0.0 mm
02:15 PM 23.7°F-4.6°C 3.5°F-15.8°C 41% 2.0 mph NE3.2 kmh NE 5.1 mph8.2 kmh 30.50 in1032.8 mb 0.00 in0.0 mm 0.00 in0.0 mm 0.00 in0.0 mm
02:30 PM 23.3°F-4.8°C 3.6°F-15.8°C 42% 8.1 mph NNE13.0 kmh NNE 14.2 mph22.9 kmh 30.50 in1032.8 mb 0.00 in0.0 mm 0.00 in0.0 mm 0.00 in0.0 mm
02:45 PM 24.4°F-4.2°C 4.1°F-15.5°C 41% 6.1 mph NW9.8 kmh NW 10.1 mph16.3 kmh 30.49 in1032.5 mb 0.00 in0.0 mm 0.00 in0.0 mm 0.00 in0.0 mm
03:00 PM 25.3°F-3.7°C 3.3°F-15.9°C 38% 4.1 mph NNW6.6 kmh NNW 10.1 mph16.3 kmh 30.48 in1032.2 mb 0.00 in0.0 mm 0.00 in0.0 mm 0.00 in0.0 mm
03:15 PM 25.2°F-3.8°C 4.3°F-15.4°C 40% 7.1 mph WNW11.4 kmh WNW 8.1 mph13.0 kmh 30.48 in1032.2 mb 0.00 in0.0 mm 0.00 in0.0 mm 0.00 in0.0 mm
03:30 PM 25.8°F-3.4°C 4.3°F-15.4°C 39% 3.0 mph N4.8 kmh N 5.1 mph8.2 kmh 30.48 in1032.2 mb 0.00 in0.0 mm 0.00 in0.0 mm 0.00 in0.0 mm
03:45 PM 25.8°F-3.4°C 3.7°F-15.7°C 38% 4.1 mph NNE6.6 kmh NNE 5.1 mph8.2 kmh 30.48 in1032.2 mb 0.00 in0.0 mm 0.00 in0.0 mm 0.00 in0.0 mm
04:00 PM 25.7°F-3.5°C 4.2°F-15.4°C 39% 6.1 mph NNW9.8 kmh NNW 9.1 mph14.6 kmh 30.47 in1031.8 mb 0.00 in0.0 mm 0.00 in0.0 mm 0.00 in0.0 mm
04:15 PM 25.0°F-3.9°C 4.1°F-15.5°C 40% 5.1 mph NE8.2 kmh NE 8.1 mph13.0 kmh 30.47 in1031.8 mb 0.00 in0.0 mm 0.00 in0.0 mm 0.00 in0.0 mm
04:30 PM 24.5°F-4.2°C 3.1°F-16.1°C 39% 1.0 mph WNW1.6 kmh WNW 2.1 mph3.4 kmh 30.47 in1031.8 mb 0.00 in0.0 mm 0.00 in0.0 mm 0.00 in0.0 mm
04:45 PM 24.6°F-4.1°C 3.8°F-15.7°C 40% 4.1 mph NE6.6 kmh NE 9.1 mph14.6 kmh 30.47 in1031.8 mb 0.00 in0.0 mm 0.00 in0.0 mm 0.00 in0.0 mm
05:00 PM 24.4°F-4.2°C 3.0°F-16.1°C 39% 5.1 mph NW8.2 kmh NW 11.2 mph18.0 kmh 30.47 in1031.8 mb 0.00 in0.0 mm 0.00 in0.0 mm 0.00 in0.0 mm
05:15 PM 24.0°F-4.4°C 2.1°F-16.6°C 38% 4.1 mph WNW6.6 kmh WNW 8.1 mph13.0 kmh 30.47 in1031.8 mb 0.00 in0.0 mm 0.00 in0.0 mm 0.00 in0.0 mm
05:30 PM 23.4°F-4.8°C 2.1°F-16.6°C 39% 3.0 mph N4.8 kmh N 5.1 mph8.2 kmh 30.47 in1031.8 mb 0.00 in0.0 mm 0.00 in0.0 mm 0.00 in0.0 mm
05:45 PM 22.7°F-5.2°C 2.0°F-16.7°C 40% 3.0 mph WNW4.8 kmh WNW 9.1 mph14.6 kmh 30.47 in1031.8 mb 0.00 in0.0 mm 0.00 in0.0 mm 0.00 in0.0 mm
06:00 PM 22.1°F-5.5°C 2.0°F-16.7°C 41% 0.1 mph NNW0.2 kmh NNW 2.1 mph3.4 kmh 30.47 in1031.8 mb 0.00 in0.0 mm 0.00 in0.0 mm 0.00 in0.0 mm
06:15 PM 20.7°F-6.3°C 2.3°F-16.5°C 44% 0.1 mph N0.2 kmh N 2.1 mph3.4 kmh 30.47 in1031.8 mb 0.00 in0.0 mm 0.00 in0.0 mm 0.00 in0.0 mm
06:30 PM 19.5°F-6.9°C 1.6°F-16.9°C 45% 0.1 mph NNW0.2 kmh NNW 1.1 mph1.8 kmh 30.47 in1031.8 mb 0.00 in0.0 mm 0.00 in0.0 mm 0.00 in0.0 mm
06:45 PM 18.8°F-7.3°C 1.0°F-17.2°C 45% 0.1 mph NNW0.2 kmh NNW 1.1 mph1.8 kmh 30.48 in1032.2 mb 0.00 in0.0 mm 0.00 in0.0 mm 0.00 in0.0 mm
07:00 PM 18.2°F-7.7°C 1.4°F-17.0°C 47% 0.1 mph NNW0.2 kmh NNW 0.1 mph0.2 kmh 30.48 in1032.2 mb 0.00 in0.0 mm 0.00 in0.0 mm 0.00 in0.0 mm
07:15 PM 17.4°F-8.1°C 1.5°F-16.9°C 49% 0.1 mph NNW0.2 kmh NNW 0.1 mph0.2 kmh 30.49 in1032.5 mb 0.00 in0.0 mm 0.00 in0.0 mm 0.00 in0.0 mm
07:30 PM 16.8°F-8.4°C 1.8°F-16.8°C 51% 0.1 mph NNW0.2 kmh NNW 0.1 mph0.2 kmh 30.48 in1032.2 mb 0.00 in0.0 mm 0.00 in0.0 mm 0.00 in0.0 mm
07:45 PM 16.3°F-8.7°C 2.2°F-16.6°C 53% 1.0 mph NNW1.6 kmh NNW 1.1 mph1.8 kmh 30.50 in1032.8 mb 0.00 in0.0 mm 0.00 in0.0 mm 0.00 in0.0 mm
08:00 PM 15.7°F-9.1°C 2.4°F-16.4°C 55% 0.1 mph NNW0.2 kmh NNW 0.1 mph0.2 kmh 30.50 in1032.8 mb 0.00 in0.0 mm 0.00 in0.0 mm 0.00 in0.0 mm
08:15 PM 15.3°F-9.3°C 3.2°F-16.0°C 58% 0.1 mph NNW0.2 kmh NNW 0.1 mph0.2 kmh 30.50 in1032.8 mb 0.00 in0.0 mm 0.00 in0.0 mm 0.00 in0.0 mm
08:30 PM 15.1°F-9.4°C 3.3°F-15.9°C 59% 0.1 mph NNW0.2 kmh NNW 0.1 mph0.2 kmh 30.50 in1032.8 mb 0.00 in0.0 mm 0.00 in0.0 mm 0.00 in0.0 mm
08:45 PM 14.7°F-9.6°C 4.0°F-15.6°C 62% 0.1 mph NNW0.2 kmh NNW 1.1 mph1.8 kmh 30.50 in1032.8 mb 0.00 in0.0 mm 0.00 in0.0 mm 0.00 in0.0 mm
09:00 PM 14.0°F-10.0°C 3.7°F-15.7°C 63% 1.0 mph NNW1.6 kmh NNW 1.1 mph1.8 kmh 30.51 in1033.2 mb 0.00 in0.0 mm 0.00 in0.0 mm 0.00 in0.0 mm
09:15 PM 13.4°F-10.3°C 3.8°F-15.7°C 65% 0.1 mph NNW0.2 kmh NNW 1.1 mph1.8 kmh 30.51 in1033.2 mb 0.00 in0.0 mm 0.00 in0.0 mm 0.00 in0.0 mm
09:30 PM 12.8°F-10.7°C 3.6°F-15.8°C 66% 0.1 mph NNW0.2 kmh NNW 1.1 mph1.8 kmh 30.52 in1033.5 mb 0.00 in0.0 mm 0.00 in0.0 mm 0.00 in0.0 mm
09:45 PM 12.9°F-10.6°C 4.3°F-15.4°C 68% 2.0 mph NNW3.2 kmh NNW 2.1 mph3.4 kmh 30.52 in1033.5 mb 0.00 in0.0 mm 0.00 in0.0 mm 0.00 in0.0 mm
10:00 PM 12.9°F-10.6°C 4.9°F-15.1°C 70% 0.1 mph NW0.2 kmh NW 2.1 mph3.4 kmh 30.52 in1033.5 mb 0.00 in0.0 mm 0.00 in0.0 mm 0.00 in0.0 mm
10:15 PM 12.2°F-11.0°C 4.6°F-15.2°C 71% 1.0 mph NNW1.6 kmh NNW 2.1 mph3.4 kmh 30.52 in1033.5 mb 0.00 in0.0 mm 0.00 in0.0 mm 0.00 in0.0 mm
10:30 PM 12.2°F-11.0°C 4.6°F-15.2°C 71% 0.1 mph NNW0.2 kmh NNW 0.1 mph0.2 kmh 30.53 in1033.9 mb 0.00 in0.0 mm 0.00 in0.0 mm 0.00 in0.0 mm
10:45 PM 12.0°F-11.1°C 5.0°F-15.0°C 73% 1.0 mph NW1.6 kmh NW 4.1 mph6.6 kmh 30.53 in1033.9 mb 0.00 in0.0 mm 0.00 in0.0 mm 0.00 in0.0 mm
11:00 PM 11.8°F-11.2°C 3.9°F-15.6°C 70% 0.1 mph NW0.2 kmh NW 1.1 mph1.8 kmh 30.53 in1033.9 mb 0.00 in0.0 mm 0.00 in0.0 mm 0.00 in0.0 mm
11:15 PM 12.5°F-10.8°C 3.3°F-15.9°C 66% 2.0 mph NW3.2 kmh NW 3.1 mph5.0 kmh 30.53 in1033.9 mb 0.00 in0.0 mm 0.00 in0.0 mm 0.00 in0.0 mm
11:30 PM 13.3°F-10.4°C 3.4°F-15.9°C 64% 1.0 mph N1.6 kmh N 4.1 mph6.6 kmh 30.54 in1034.2 mb 0.00 in0.0 mm 0.00 in0.0 mm 0.00 in0.0 mm
11:45 PM 13.0°F-10.6°C 2.4°F-16.4°C 62% 2.0 mph NW3.2 kmh NW 3.1 mph5.0 kmh 30.54 in1034.2 mb 0.00 in0.0 mm 0.00 in0.0 mm 0.00 in0.0 mm